createdAt,value
2018-01-27T00:00:56.169Z,1019.65
2018-01-27T00:01:56.199Z,1019.67
2018-01-27T00:02:56.127Z,1019.67
2018-01-27T00:03:56.166Z,1019.70
2018-01-27T00:04:56.088Z,1019.70
2018-01-27T00:05:56.072Z,1019.73
2018-01-27T00:06:56.057Z,1019.76
2018-01-27T00:07:56.138Z,1019.76
2018-01-27T00:08:56.017Z,1019.81
2018-01-27T00:09:55.994Z,1019.77
2018-01-27T00:10:55.974Z,1019.81
2018-01-27T00:11:55.972Z,1019.80
2018-01-27T00:12:55.953Z,1019.84
2018-01-27T00:13:55.988Z,1019.86
2018-01-27T00:14:55.904Z,1019.85
2018-01-27T00:15:55.978Z,1019.83
2018-01-27T00:16:55.866Z,1019.84
2018-01-27T00:17:55.951Z,1019.82
2018-01-27T00:18:55.832Z,1019.85
2018-01-27T00:19:55.859Z,1019.82
2018-01-27T00:20:55.788Z,1019.81
2018-01-27T00:21:55.769Z,1019.80
2018-01-27T00:22:55.751Z,1019.81
2018-01-27T00:23:55.730Z,1019.78
2018-01-27T00:24:55.709Z,1019.80
2018-01-27T00:25:55.688Z,1019.77
2018-01-27T00:26:55.669Z,1019.76
2018-01-27T00:27:55.657Z,1019.74
2018-01-27T00:28:55.634Z,1019.77
2018-01-27T00:29:55.615Z,1019.71
2018-01-27T00:30:55.598Z,1019.70
2018-01-27T00:31:55.584Z,1019.76
2018-01-27T00:32:55.560Z,1019.74
2018-01-27T00:33:55.544Z,1019.72
2018-01-27T00:34:55.520Z,1019.69
2018-01-27T00:35:55.501Z,1019.73
2018-01-27T00:36:55.480Z,1019.78
2018-01-27T00:37:55.458Z,1019.79
2018-01-27T00:38:55.450Z,1019.75
2018-01-27T00:39:55.421Z,1019.78
2018-01-27T00:40:55.403Z,1019.76
2018-01-27T00:41:55.391Z,1019.76
2018-01-27T00:42:55.370Z,1019.80
2018-01-27T00:43:55.349Z,1019.79
2018-01-27T00:44:55.325Z,1019.79
2018-01-27T00:45:55.310Z,1019.78
2018-01-27T00:46:55.297Z,1019.85
2018-01-27T00:47:55.270Z,1019.78
2018-01-27T00:48:55.248Z,1019.83
2018-01-27T00:49:55.231Z,1019.83
2018-01-27T00:50:55.212Z,1019.80
2018-01-27T00:51:55.194Z,1019.79
2018-01-27T00:52:55.180Z,1019.77
2018-01-27T00:53:55.156Z,1019.76
2018-01-27T00:54:55.140Z,1019.81
2018-01-27T00:55:55.117Z,1019.82
2018-01-27T00:56:55.100Z,1019.82
2018-01-27T00:57:55.089Z,1019.83
2018-01-27T00:58:55.064Z,1019.82
2018-01-27T00:59:55.043Z,1019.84
2018-01-27T01:00:55.032Z,1019.79
2018-01-27T01:01:55.010Z,1019.79
2018-01-27T01:02:54.987Z,1019.83
2018-01-27T01:03:54.965Z,1019.82
2018-01-27T01:04:54.942Z,1019.81
2018-01-27T01:05:54.929Z,1019.86
2018-01-27T01:06:54.902Z,1019.84
2018-01-27T01:07:54.943Z,1019.83
2018-01-27T01:08:54.872Z,1019.81
2018-01-27T01:09:54.846Z,1019.85
2018-01-27T01:10:54.830Z,1019.88
2018-01-27T01:11:54.823Z,1019.89
2018-01-27T01:12:54.788Z,1019.92
2018-01-27T01:13:54.772Z,1019.95
2018-01-27T01:14:54.750Z,1019.92
2018-01-27T01:15:54.769Z,1019.89
2018-01-27T01:16:54.720Z,1019.91
2018-01-27T01:17:54.744Z,1019.86
2018-01-27T01:18:54.676Z,1019.89
2018-01-27T01:19:54.808Z,1019.91
2018-01-27T01:20:54.640Z,1019.96
2018-01-27T01:21:54.667Z,1019.96
2018-01-27T01:22:54.599Z,1019.99
2018-01-27T01:23:54.638Z,1019.99
2018-01-27T01:24:54.558Z,1020.05
2018-01-27T01:25:54.569Z,1020.03
2018-01-27T01:26:54.523Z,1020.03
2018-01-27T01:27:54.588Z,1020.09
2018-01-27T01:28:54.478Z,1020.09
2018-01-27T01:29:54.568Z,1020.09
2018-01-27T01:30:54.441Z,1020.08
2018-01-27T01:31:54.473Z,1020.11
2018-01-27T01:32:54.403Z,1020.09
2018-01-27T01:33:54.472Z,1020.13
2018-01-27T01:34:54.368Z,1020.13
2018-01-27T01:35:54.394Z,1020.14
2018-01-27T01:36:54.327Z,1020.16
2018-01-27T01:37:54.355Z,1020.17
2018-01-27T01:38:54.284Z,1020.16
2018-01-27T01:39:54.335Z,1020.17
2018-01-27T01:40:54.249Z,1020.17
2018-01-27T01:41:54.278Z,1020.16
2018-01-27T01:42:54.208Z,1020.14
2018-01-27T01:43:54.244Z,1020.18
2018-01-27T01:44:54.166Z,1020.20
2018-01-27T01:45:54.198Z,1020.21
2018-01-27T01:46:54.126Z,1020.19
2018-01-27T01:47:54.109Z,1020.22
2018-01-27T01:48:54.089Z,1020.22
2018-01-27T01:49:54.074Z,1020.27
2018-01-27T01:50:54.054Z,1020.23
2018-01-27T01:51:54.037Z,1020.19
2018-01-27T01:52:54.011Z,1020.19
2018-01-27T01:53:54.000Z,1020.21
2018-01-27T01:54:53.973Z,1020.17
2018-01-27T01:55:53.958Z,1020.18
2018-01-27T01:56:53.935Z,1020.15
2018-01-27T01:57:53.912Z,1020.18
2018-01-27T01:58:53.898Z,1020.19
2018-01-27T01:59:53.878Z,1020.17
2018-01-27T02:00:53.859Z,1020.18
2018-01-27T02:01:53.842Z,1020.19
2018-01-27T02:02:53.819Z,1020.20
2018-01-27T02:03:53.810Z,1020.21
2018-01-27T02:04:53.792Z,1020.18
2018-01-27T02:05:53.781Z,1020.21
2018-01-27T02:06:53.760Z,1020.21
2018-01-27T02:07:53.750Z,1020.20
2018-01-27T02:08:53.699Z,1020.16
2018-01-27T02:09:53.695Z,1020.20
2018-01-27T02:10:53.693Z,1020.19
2018-01-27T02:11:53.650Z,1020.19
2018-01-27T02:12:53.631Z,1020.21
2018-01-27T02:13:53.609Z,1020.23
2018-01-27T02:14:53.589Z,1020.25
2018-01-27T02:15:53.565Z,1020.23
2018-01-27T02:16:53.550Z,1020.26
2018-01-27T02:17:53.527Z,1020.24
2018-01-27T02:18:53.506Z,1020.26
2018-01-27T02:19:53.484Z,1020.22
2018-01-27T02:20:53.466Z,1020.27
2018-01-27T02:21:53.449Z,1020.27
2018-01-27T02:22:53.430Z,1020.30
2018-01-27T02:23:53.407Z,1020.28
2018-01-27T02:24:53.388Z,1020.29
2018-01-27T02:25:53.368Z,1020.30
2018-01-27T02:26:53.347Z,1020.32
2018-01-27T02:27:53.331Z,1020.30
2018-01-27T02:28:53.307Z,1020.27
2018-01-27T02:29:53.288Z,1020.27
2018-01-27T02:30:53.269Z,1020.27
2018-01-27T02:31:53.248Z,1020.27
2018-01-27T02:32:53.229Z,1020.31
2018-01-27T02:33:53.261Z,1020.29
2018-01-27T02:34:53.191Z,1020.31
2018-01-27T02:35:53.175Z,1020.32
2018-01-27T02:36:53.152Z,1020.32
2018-01-27T02:37:53.239Z,1020.34
2018-01-27T02:38:53.115Z,1020.32
2018-01-27T02:39:53.096Z,1020.33
2018-01-27T02:40:53.077Z,1020.30
2018-01-27T02:41:53.204Z,1020.34
2018-01-27T02:42:53.033Z,1020.34
2018-01-27T02:43:53.168Z,1020.31
2018-01-27T02:44:52.999Z,1020.34
2018-01-27T02:45:53.124Z,1020.32
2018-01-27T02:46:52.955Z,1020.35
2018-01-27T02:47:52.993Z,1020.36
2018-01-27T02:48:52.917Z,1020.37
2018-01-27T02:49:52.953Z,1020.37
2018-01-27T02:50:52.878Z,1020.38
2018-01-27T02:51:52.959Z,1020.35
2018-01-27T02:52:52.840Z,1020.36
2018-01-27T02:53:52.820Z,1020.40
2018-01-27T02:54:52.801Z,1020.39
2018-01-27T02:55:52.876Z,1020.39
2018-01-27T02:56:52.762Z,1020.35
2018-01-27T02:57:52.796Z,1020.38
2018-01-27T02:58:52.725Z,1020.38
2018-01-27T02:59:52.854Z,1020.32
2018-01-27T03:00:52.684Z,1020.32
2018-01-27T03:01:52.815Z,1020.34
2018-01-27T03:02:52.650Z,1020.35
2018-01-27T03:03:52.780Z,1020.36
2018-01-27T03:04:52.611Z,1020.33
2018-01-27T03:05:52.740Z,1020.35
2018-01-27T03:06:52.568Z,1020.37
2018-01-27T03:07:52.551Z,1020.37
2018-01-27T03:08:52.527Z,1020.37
2018-01-27T03:09:52.564Z,1020.38
2018-01-27T03:10:52.497Z,1020.35
2018-01-27T03:11:52.474Z,1020.34
2018-01-27T03:12:52.450Z,1020.38
2018-01-27T03:13:52.430Z,1020.38
2018-01-27T03:14:52.411Z,1020.40
2018-01-27T03:15:52.393Z,1020.38
2018-01-27T03:16:52.370Z,1020.40
2018-01-27T03:17:52.354Z,1020.41
2018-01-27T03:18:52.337Z,1020.45
2018-01-27T03:19:52.314Z,1020.48
2018-01-27T03:20:52.292Z,1020.48
2018-01-27T03:21:52.274Z,1020.50
2018-01-27T03:22:52.264Z,1020.53
2018-01-27T03:23:52.234Z,1020.53
2018-01-27T03:24:52.214Z,1020.49
2018-01-27T03:25:52.198Z,1020.50
2018-01-27T03:26:52.183Z,1020.55
2018-01-27T03:27:52.159Z,1020.56
2018-01-27T03:28:52.138Z,1020.52
2018-01-27T03:29:52.122Z,1020.58
2018-01-27T03:30:52.099Z,1020.56
2018-01-27T03:31:52.076Z,1020.60
2018-01-27T03:32:52.054Z,1020.56
2018-01-27T03:33:52.040Z,1020.57
2018-01-27T03:34:52.019Z,1020.59
2018-01-27T03:35:51.998Z,1020.59
2018-01-27T03:36:51.976Z,1020.57
2018-01-27T03:37:51.959Z,1020.65
2018-01-27T03:38:51.939Z,1020.61
2018-01-27T03:39:51.921Z,1020.61
2018-01-27T03:40:51.900Z,1020.61
2018-01-27T03:41:51.877Z,1020.65
2018-01-27T03:42:51.859Z,1020.63
2018-01-27T03:43:51.847Z,1020.68
2018-01-27T03:44:51.821Z,1020.64
2018-01-27T03:45:51.805Z,1020.68
2018-01-27T03:46:51.780Z,1020.71
2018-01-27T03:47:51.760Z,1020.67
2018-01-27T03:48:51.741Z,1020.69
2018-01-27T03:49:51.729Z,1020.68
2018-01-27T03:50:51.702Z,1020.70
2018-01-27T03:51:51.690Z,1020.70
2018-01-27T03:52:51.666Z,1020.71
2018-01-27T03:53:51.645Z,1020.70
2018-01-27T03:54:51.624Z,1020.73
2018-01-27T03:55:51.610Z,1020.72
2018-01-27T03:56:51.584Z,1020.72
2018-01-27T03:57:51.590Z,1020.74
2018-01-27T03:58:51.543Z,1020.77
2018-01-27T03:59:51.587Z,1020.77
2018-01-27T04:00:51.508Z,1020.79
2018-01-27T04:01:51.491Z,1020.81
2018-01-27T04:02:51.465Z,1020.84
2018-01-27T04:03:51.454Z,1020.85
2018-01-27T04:04:51.427Z,1020.87
2018-01-27T04:05:51.503Z,1020.89
2018-01-27T04:06:51.384Z,1020.96
2018-01-27T04:07:51.475Z,1020.98
2018-01-27T04:08:51.349Z,1021.02
2018-01-27T04:09:51.331Z,1021.03
2018-01-27T04:10:51.307Z,1021.03
2018-01-27T04:11:51.288Z,1021.04
2018-01-27T04:12:51.269Z,1021.05
2018-01-27T04:13:51.247Z,1021.05
2018-01-27T04:14:51.229Z,1021.08
2018-01-27T04:15:51.250Z,1021.02
2018-01-27T04:16:51.187Z,1021.01
2018-01-27T04:17:51.345Z,1021.05
2018-01-27T04:18:51.152Z,1021.02
2018-01-27T04:19:51.129Z,1021.06
2018-01-27T04:20:51.106Z,1021.10
2018-01-27T04:21:51.251Z,1021.13
2018-01-27T04:22:51.070Z,1021.17
2018-01-27T04:23:51.049Z,1021.13
2018-01-27T04:24:51.031Z,1021.11
2018-01-27T04:25:51.014Z,1021.10
2018-01-27T04:26:50.992Z,1021.13
2018-01-27T04:27:51.105Z,1021.10
2018-01-27T04:28:50.950Z,1021.14
2018-01-27T04:29:50.959Z,1021.14
2018-01-27T04:30:50.915Z,1021.22
2018-01-27T04:31:50.897Z,1021.21
2018-01-27T04:32:50.908Z,1021.29
2018-01-27T04:33:50.861Z,1021.31
2018-01-27T04:34:50.836Z,1021.36
2018-01-27T04:35:50.888Z,1021.35
2018-01-27T04:36:50.793Z,1021.36
2018-01-27T04:37:50.772Z,1021.38
2018-01-27T04:38:50.756Z,1021.44
2018-01-27T04:39:50.732Z,1021.42
2018-01-27T04:40:50.719Z,1021.39
2018-01-27T04:41:50.714Z,1021.39
2018-01-27T04:42:50.679Z,1021.46
2018-01-27T04:43:50.659Z,1021.48
2018-01-27T04:44:50.632Z,1021.46
2018-01-27T04:45:50.616Z,1021.46
2018-01-27T04:46:50.603Z,1021.46
2018-01-27T04:47:50.582Z,1021.49
2018-01-27T04:48:50.558Z,1021.51
2018-01-27T04:49:50.536Z,1021.50
2018-01-27T04:50:50.521Z,1021.54
2018-01-27T04:51:50.496Z,1021.55
2018-01-27T04:52:50.482Z,1021.60
2018-01-27T04:53:50.460Z,1021.60
2018-01-27T04:54:50.441Z,1021.63
2018-01-27T04:55:50.427Z,1021.64
2018-01-27T04:56:50.397Z,1021.68
2018-01-27T04:57:50.379Z,1021.63
2018-01-27T04:58:50.361Z,1021.65
2018-01-27T04:59:50.338Z,1021.66
2018-01-27T05:00:50.326Z,1021.71
2018-01-27T05:01:50.299Z,1021.71
2018-01-27T05:02:50.281Z,1021.65
2018-01-27T05:03:50.261Z,1021.69
2018-01-27T05:04:50.242Z,1021.68
2018-01-27T05:05:50.221Z,1021.68
2018-01-27T05:06:50.201Z,1021.68
2018-01-27T05:07:50.184Z,1021.71
2018-01-27T05:08:50.162Z,1021.68
2018-01-27T05:09:50.141Z,1021.76
2018-01-27T05:10:50.136Z,1021.74
2018-01-27T05:11:50.100Z,1021.79
2018-01-27T05:12:50.080Z,1021.84
2018-01-27T05:13:50.061Z,1021.83
2018-01-27T05:14:50.045Z,1021.82
2018-01-27T05:15:50.020Z,1021.84
2018-01-27T05:16:50.002Z,1021.84
2018-01-27T05:17:49.990Z,1021.85
2018-01-27T05:18:49.960Z,1021.87
2018-01-27T05:19:49.955Z,1021.88
2018-01-27T05:20:49.924Z,1021.91
2018-01-27T05:21:49.908Z,1021.93
2018-01-27T05:22:49.890Z,1021.95
2018-01-27T05:23:49.888Z,1022.02
2018-01-27T05:24:49.844Z,1022.06
2018-01-27T05:25:49.915Z,1022.09
2018-01-27T05:26:49.805Z,1022.13
2018-01-27T05:27:49.854Z,1022.15
2018-01-27T05:28:49.771Z,1022.18
2018-01-27T05:29:49.753Z,1022.21
2018-01-27T05:30:49.725Z,1022.20
2018-01-27T05:31:49.706Z,1022.24
2018-01-27T05:32:49.685Z,1022.20
2018-01-27T05:33:49.667Z,1022.21
2018-01-27T05:34:49.652Z,1022.21
2018-01-27T05:35:49.629Z,1022.22
2018-01-27T05:36:49.608Z,1022.21
2018-01-27T05:37:49.604Z,1022.20
2018-01-27T05:38:49.569Z,1022.20
2018-01-27T05:39:49.548Z,1022.20
2018-01-27T05:40:49.529Z,1022.19
2018-01-27T05:41:49.510Z,1022.20
2018-01-27T05:42:49.489Z,1022.21
2018-01-27T05:43:49.470Z,1022.23
2018-01-27T05:44:49.450Z,1022.24
2018-01-27T05:45:49.461Z,1022.28
2018-01-27T05:46:49.413Z,1022.30
2018-01-27T05:47:49.389Z,1022.25
2018-01-27T05:48:49.371Z,1022.25
2018-01-27T05:49:49.350Z,1022.26
2018-01-27T05:50:49.330Z,1022.26
2018-01-27T05:51:49.311Z,1022.32
2018-01-27T05:52:49.291Z,1022.28
2018-01-27T05:53:49.274Z,1022.35
2018-01-27T05:54:49.264Z,1022.33
2018-01-27T05:55:49.240Z,1022.36
2018-01-27T05:56:49.217Z,1022.34
2018-01-27T05:57:49.194Z,1022.33
2018-01-27T05:58:49.175Z,1022.30
2018-01-27T05:59:49.157Z,1022.29
2018-01-27T06:00:49.143Z,1022.27
2018-01-27T06:01:49.117Z,1022.28
2018-01-27T06:02:49.096Z,1022.26
2018-01-27T06:03:49.077Z,1022.28
2018-01-27T06:04:49.057Z,1022.32
2018-01-27T06:05:49.037Z,1022.33
2018-01-27T06:06:49.020Z,1022.36
2018-01-27T06:07:48.998Z,1022.35
2018-01-27T06:08:48.980Z,1022.35
2018-01-27T06:09:48.960Z,1022.36
2018-01-27T06:10:48.937Z,1022.40
2018-01-27T06:11:48.917Z,1022.39
2018-01-27T06:12:48.898Z,1022.38
2018-01-27T06:13:48.876Z,1022.39
2018-01-27T06:14:48.859Z,1022.39
2018-01-27T06:15:48.835Z,1022.37
2018-01-27T06:16:48.817Z,1022.38
2018-01-27T06:17:48.800Z,1022.37
2018-01-27T06:18:48.781Z,1022.36
2018-01-27T06:19:48.759Z,1022.37
2018-01-27T06:20:48.735Z,1022.35
2018-01-27T06:21:48.718Z,1022.40
2018-01-27T06:22:48.701Z,1022.39
2018-01-27T06:23:48.679Z,1022.39
2018-01-27T06:24:48.657Z,1022.42
2018-01-27T06:25:48.638Z,1022.42
2018-01-27T06:26:48.620Z,1022.39
2018-01-27T06:27:48.600Z,1022.39
2018-01-27T06:28:48.580Z,1022.40
2018-01-27T06:29:48.560Z,1022.42
2018-01-27T06:30:48.539Z,1022.44
2018-01-27T06:31:48.525Z,1022.45
2018-01-27T06:32:48.498Z,1022.47
2018-01-27T06:33:48.481Z,1022.49
2018-01-27T06:34:48.459Z,1022.54
2018-01-27T06:35:48.437Z,1022.53
2018-01-27T06:36:48.423Z,1022.57
2018-01-27T06:37:48.399Z,1022.56
2018-01-27T06:38:48.380Z,1022.54
2018-01-27T06:39:48.362Z,1022.54
2018-01-27T06:40:48.337Z,1022.59
2018-01-27T06:41:48.319Z,1022.59
2018-01-27T06:42:48.302Z,1022.67
2018-01-27T06:43:48.285Z,1022.70
2018-01-27T06:44:48.259Z,1022.72
2018-01-27T06:45:48.242Z,1022.75
2018-01-27T06:46:48.222Z,1022.76
2018-01-27T06:47:48.199Z,1022.81
2018-01-27T06:48:48.179Z,1022.80
2018-01-27T06:49:48.160Z,1022.82
2018-01-27T06:50:48.140Z,1022.81
2018-01-27T06:51:48.120Z,1022.87
2018-01-27T06:52:48.101Z,1022.88
2018-01-27T06:53:48.082Z,1022.89
2018-01-27T06:54:48.069Z,1022.85
2018-01-27T06:55:48.040Z,1022.88
2018-01-27T06:56:48.022Z,1022.80
2018-01-27T06:57:48.010Z,1022.79
2018-01-27T06:58:47.986Z,1022.77
2018-01-27T06:59:47.968Z,1022.73
2018-01-27T07:00:47.957Z,1022.73
2018-01-27T07:01:47.925Z,1022.75
2018-01-27T07:02:47.908Z,1022.77
2018-01-27T07:03:47.884Z,1022.81
2018-01-27T07:04:47.865Z,1022.86
2018-01-27T07:05:47.849Z,1022.97
2018-01-27T07:06:47.832Z,1022.96
2018-01-27T07:07:47.809Z,1023.01
2018-01-27T07:08:47.787Z,1022.99
2018-01-27T07:09:47.770Z,1022.99
2018-01-27T07:10:47.751Z,1023.01
2018-01-27T07:11:47.726Z,1023.02
2018-01-27T07:12:47.706Z,1023.06
2018-01-27T07:13:47.689Z,1023.04
2018-01-27T07:14:47.682Z,1023.05
2018-01-27T07:15:47.646Z,1023.03
2018-01-27T07:16:47.630Z,1023.04
2018-01-27T07:17:47.606Z,1023.05
2018-01-27T07:18:47.590Z,1023.06
2018-01-27T07:19:47.567Z,1023.03
2018-01-27T07:20:47.550Z,1023.03
2018-01-27T07:21:47.528Z,1023.01
2018-01-27T07:22:47.511Z,1023.00
2018-01-27T07:23:47.489Z,1023.02
2018-01-27T07:24:47.471Z,1023.02
2018-01-27T07:25:47.450Z,1023.01
2018-01-27T07:26:47.430Z,1023.01
2018-01-27T07:27:47.409Z,1023.03
2018-01-27T07:28:47.391Z,1023.08
2018-01-27T07:29:47.371Z,1023.10
2018-01-27T07:30:47.351Z,1023.12
2018-01-27T07:31:47.330Z,1023.15
2018-01-27T07:32:47.311Z,1023.11
2018-01-27T07:33:47.289Z,1023.18
2018-01-27T07:34:47.293Z,1023.19
2018-01-27T07:35:47.252Z,1023.20
2018-01-27T07:36:47.244Z,1023.24
2018-01-27T07:37:47.213Z,1023.23
2018-01-27T07:38:47.189Z,1023.17
2018-01-27T07:39:47.172Z,1023.19
2018-01-27T07:40:47.158Z,1023.18
2018-01-27T07:41:47.135Z,1023.19
2018-01-27T07:42:47.115Z,1023.17
2018-01-27T07:43:47.098Z,1023.19
2018-01-27T07:44:47.073Z,1023.19
2018-01-27T07:45:47.060Z,1023.21
2018-01-27T07:46:47.030Z,1023.20
2018-01-27T07:47:47.021Z,1023.21
2018-01-27T07:48:46.990Z,1023.26
2018-01-27T07:49:46.974Z,1023.25
2018-01-27T07:50:46.957Z,1023.27
2018-01-27T07:51:46.941Z,1023.28
2018-01-27T07:52:46.915Z,1023.29
2018-01-27T07:53:46.902Z,1023.31
2018-01-27T07:54:46.882Z,1023.31
2018-01-27T07:55:46.858Z,1023.29
2018-01-27T07:56:46.841Z,1023.25
2018-01-27T07:57:46.819Z,1023.28
2018-01-27T07:58:46.801Z,1023.31
2018-01-27T07:59:46.783Z,1023.32
2018-01-27T08:00:46.755Z,1023.35
2018-01-27T08:01:46.739Z,1023.35
2018-01-27T08:02:46.732Z,1023.39
2018-01-27T08:03:46.700Z,1023.42
2018-01-27T08:04:46.681Z,1023.39
2018-01-27T08:05:46.660Z,1023.45
2018-01-27T08:06:46.638Z,1023.48
2018-01-27T08:07:46.621Z,1023.49
2018-01-27T08:08:46.595Z,1023.50
2018-01-27T08:09:46.579Z,1023.50
2018-01-27T08:10:46.558Z,1023.49
2018-01-27T08:11:46.536Z,1023.53
2018-01-27T08:12:46.524Z,1023.51
2018-01-27T08:13:46.503Z,1023.52
2018-01-27T08:14:46.476Z,1023.52
2018-01-27T08:15:46.457Z,1023.49
2018-01-27T08:16:46.440Z,1023.49
2018-01-27T08:17:46.417Z,1023.50
2018-01-27T08:18:46.400Z,1023.48
2018-01-27T08:19:46.378Z,1023.49
2018-01-27T08:20:46.359Z,1023.50
2018-01-27T08:21:46.339Z,1023.51
2018-01-27T08:22:46.320Z,1023.51
2018-01-27T08:23:46.306Z,1023.49
2018-01-27T08:24:46.280Z,1023.52
2018-01-27T08:25:46.266Z,1023.53
2018-01-27T08:26:46.239Z,1023.54
2018-01-27T08:27:46.222Z,1023.55
2018-01-27T08:28:46.200Z,1023.55
2018-01-27T08:29:46.179Z,1023.54
2018-01-27T08:30:46.162Z,1023.50
2018-01-27T08:31:46.143Z,1023.52
2018-01-27T08:32:46.123Z,1023.50
2018-01-27T08:33:46.102Z,1023.55
2018-01-27T08:34:46.090Z,1023.61
2018-01-27T08:35:46.065Z,1023.60
2018-01-27T08:36:46.046Z,1023.60
2018-01-27T08:37:46.024Z,1023.59
2018-01-27T08:38:46.006Z,1023.57
2018-01-27T08:39:45.990Z,1023.57
2018-01-27T08:40:45.965Z,1023.58
2018-01-27T08:41:45.943Z,1023.62
2018-01-27T08:42:45.921Z,1023.63
2018-01-27T08:43:45.907Z,1023.62
2018-01-27T08:44:45.881Z,1023.55
2018-01-27T08:45:45.868Z,1023.54
2018-01-27T08:46:45.841Z,1023.48
2018-01-27T08:47:45.821Z,1023.48
2018-01-27T08:48:45.807Z,1023.47
2018-01-27T08:49:45.784Z,1023.49
2018-01-27T08:50:45.772Z,1023.50
2018-01-27T08:51:45.747Z,1023.49
2018-01-27T08:52:45.722Z,1023.53
2018-01-27T08:53:45.711Z,1023.57
2018-01-27T08:54:45.691Z,1023.54
2018-01-27T08:55:45.665Z,1023.57
2018-01-27T08:56:45.651Z,1023.50
2018-01-27T08:57:45.627Z,1023.48
2018-01-27T08:58:45.611Z,1023.54
2018-01-27T08:59:45.583Z,1023.54
2018-01-27T09:00:45.568Z,1023.60
2018-01-27T09:01:45.597Z,1023.62
2018-01-27T09:02:45.521Z,1023.66
2018-01-27T09:03:45.513Z,1023.69
2018-01-27T09:04:45.488Z,1023.69
2018-01-27T09:05:45.470Z,1023.70
2018-01-27T09:06:45.455Z,1023.76
2018-01-27T09:07:45.430Z,1023.83
2018-01-27T09:08:45.410Z,1023.96
2018-01-27T09:09:45.390Z,1024.16
2018-01-27T09:10:45.371Z,1024.28
2018-01-27T09:11:45.356Z,1024.16
2018-01-27T09:12:45.330Z,1023.90
2018-01-27T09:13:45.316Z,1024.24
2018-01-27T09:14:45.298Z,1024.36
2018-01-27T09:15:45.279Z,1024.27
2018-01-27T09:16:45.269Z,1024.18
2018-01-27T09:17:45.249Z,1024.02
2018-01-27T09:18:45.231Z,1023.99
2018-01-27T09:19:45.217Z,1024.00
2018-01-27T09:20:45.200Z,1023.98
2018-01-27T09:21:45.180Z,1024.02
2018-01-27T09:22:45.162Z,1024.03
2018-01-27T09:23:45.160Z,1023.97
2018-01-27T09:24:45.130Z,1023.95
2018-01-27T09:25:45.113Z,1023.94
2018-01-27T09:26:45.102Z,1023.88
2018-01-27T09:27:45.089Z,1023.86
2018-01-27T09:28:45.059Z,1023.80
2018-01-27T09:29:45.041Z,1023.81
2018-01-27T09:30:45.030Z,1023.82
2018-01-27T09:31:45.017Z,1023.83
2018-01-27T09:32:44.992Z,1023.73
2018-01-27T09:33:44.972Z,1023.73
2018-01-27T09:34:44.954Z,1023.88
2018-01-27T09:35:44.934Z,1023.71
2018-01-27T09:36:44.917Z,1023.93
2018-01-27T09:37:44.909Z,1024.31
2018-01-27T09:38:44.892Z,1024.45
2018-01-27T09:39:44.877Z,1024.44
2018-01-27T09:40:44.858Z,1024.35
2018-01-27T09:41:44.840Z,1024.36
2018-01-27T09:42:44.826Z,1024.41
2018-01-27T09:43:44.810Z,1024.49
2018-01-27T09:44:44.802Z,1024.48
2018-01-27T09:45:44.793Z,1024.62
2018-01-27T09:46:44.785Z,1024.62
2018-01-27T09:47:44.778Z,1024.71
2018-01-27T09:48:44.754Z,1024.74
2018-01-27T09:49:44.741Z,1024.73
2018-01-27T09:50:44.730Z,1024.90
2018-01-27T09:51:44.723Z,1024.83
2018-01-27T09:52:44.712Z,1025.04
2018-01-27T09:53:44.700Z,1025.07
2018-01-27T09:54:44.699Z,1025.31
2018-01-27T09:55:44.687Z,1025.74
2018-01-27T09:56:44.674Z,1025.57
2018-01-27T09:57:44.670Z,1025.42
2018-01-27T09:58:44.665Z,1025.50
2018-01-27T09:59:44.680Z,1025.51
2018-01-27T10:00:44.637Z,1025.61
2018-01-27T10:01:44.639Z,1025.23
2018-01-27T10:02:44.624Z,1025.41
2018-01-27T10:03:44.670Z,1025.43
2018-01-27T10:04:44.602Z,1025.43
2018-01-27T10:05:44.600Z,1025.01
2018-01-27T10:06:44.591Z,1024.67
2018-01-27T10:07:44.631Z,1025.24
2018-01-27T10:08:44.581Z,1025.20
2018-01-27T10:09:44.717Z,1024.26
2018-01-27T10:10:44.606Z,1025.31
2018-01-27T10:11:44.545Z,1025.26
2018-01-27T10:12:44.541Z,1025.30
2018-01-27T10:13:44.530Z,1025.24
2018-01-27T10:14:44.523Z,1025.31
2018-01-27T10:15:44.571Z,1025.26
2018-01-27T10:16:44.509Z,1025.33
2018-01-27T10:17:44.503Z,1025.30
2018-01-27T10:18:44.493Z,1025.41
2018-01-27T10:19:44.499Z,1025.42
2018-01-27T10:20:44.492Z,1025.20
2018-01-27T10:21:44.473Z,1025.12
2018-01-27T10:22:44.461Z,1023.92
2018-01-27T10:23:44.452Z,1023.87
2018-01-27T10:24:44.445Z,1023.94
2018-01-27T10:25:44.433Z,1023.93
2018-01-27T10:26:44.422Z,1023.87
2018-01-27T10:27:44.412Z,1023.84
2018-01-27T10:28:44.404Z,1023.92
2018-01-27T10:29:44.390Z,1023.90
2018-01-27T10:30:44.380Z,1023.86
2018-01-27T10:31:44.373Z,1023.84
2018-01-27T10:32:44.366Z,1023.80
2018-01-27T10:33:44.350Z,1023.83
2018-01-27T10:34:44.326Z,1023.77
2018-01-27T10:35:44.332Z,1023.81
2018-01-27T10:36:44.300Z,1023.82
2018-01-27T10:37:44.289Z,1023.81
2018-01-27T10:38:44.272Z,1023.84
2018-01-27T10:39:44.262Z,1023.91
2018-01-27T10:40:44.254Z,1023.91
2018-01-27T10:41:44.234Z,1023.86
2018-01-27T10:42:44.220Z,1023.89
2018-01-27T10:43:44.198Z,1023.97
2018-01-27T10:44:44.186Z,1023.97
2018-01-27T10:45:44.170Z,1023.96
2018-01-27T10:46:44.163Z,1023.87
2018-01-27T10:47:44.140Z,1023.94
2018-01-27T10:48:44.121Z,1023.93
2018-01-27T10:49:44.158Z,1023.91
2018-01-27T10:50:44.092Z,1023.90
2018-01-27T10:51:44.072Z,1024.44
2018-01-27T10:52:44.053Z,1024.69
2018-01-27T10:53:44.040Z,1024.19
2018-01-27T10:54:44.026Z,1023.97
2018-01-27T10:55:44.010Z,1023.95
2018-01-27T10:56:43.991Z,1023.94
2018-01-27T10:57:43.978Z,1023.95
2018-01-27T10:58:43.961Z,1023.97
2018-01-27T10:59:43.948Z,1024.00
2018-01-27T11:00:43.933Z,1024.03
2018-01-27T11:01:43.909Z,1023.99
2018-01-27T11:02:43.896Z,1023.99
2018-01-27T11:03:43.878Z,1024.03
2018-01-27T11:04:43.868Z,1024.02
2018-01-27T11:05:43.847Z,1024.01
2018-01-27T11:06:43.825Z,1023.99
2018-01-27T11:07:43.811Z,1023.92
2018-01-27T11:08:43.798Z,1023.94
2018-01-27T11:09:43.783Z,1023.94
2018-01-27T11:10:43.760Z,1023.92
2018-01-27T11:11:43.740Z,1023.97
2018-01-27T11:12:43.726Z,1023.91
2018-01-27T11:13:43.708Z,1023.95
2018-01-27T11:14:43.704Z,1024.01
2018-01-27T11:15:43.672Z,1023.92
2018-01-27T11:16:43.669Z,1023.96
2018-01-27T11:17:43.641Z,1023.93
2018-01-27T11:18:43.620Z,1023.99
2018-01-27T11:19:43.600Z,1023.93
2018-01-27T11:20:43.580Z,1023.98
2018-01-27T11:21:43.569Z,1023.99
2018-01-27T11:22:43.546Z,1023.93
2018-01-27T11:23:43.542Z,1023.98
2018-01-27T11:24:43.560Z,1023.90
2018-01-27T11:25:43.490Z,1023.98
2018-01-27T11:26:43.476Z,1023.96
2018-01-27T11:27:43.465Z,1024.03
2018-01-27T11:28:43.440Z,1023.95
2018-01-27T11:29:43.424Z,1023.94
2018-01-27T11:30:43.514Z,1023.96
2018-01-27T11:31:43.381Z,1023.95
2018-01-27T11:32:43.370Z,1023.96
2018-01-27T11:33:43.346Z,1023.92
2018-01-27T11:34:43.327Z,1023.92
2018-01-27T11:35:43.321Z,1023.87
2018-01-27T11:36:43.295Z,1023.92
2018-01-27T11:37:43.274Z,1023.90
2018-01-27T11:38:43.261Z,1023.84
2018-01-27T11:39:43.241Z,1023.85
2018-01-27T11:40:43.277Z,1023.84
2018-01-27T11:41:43.196Z,1023.81
2018-01-27T11:42:43.274Z,1023.84
2018-01-27T11:43:43.164Z,1023.88
2018-01-27T11:44:43.163Z,1023.85
2018-01-27T11:45:43.139Z,1023.92
2018-01-27T11:46:43.167Z,1023.84
2018-01-27T11:47:43.094Z,1023.87
2018-01-27T11:48:43.080Z,1023.85
2018-01-27T11:49:43.052Z,1023.84
2018-01-27T11:50:43.039Z,1023.79
2018-01-27T11:51:43.022Z,1023.79
2018-01-27T11:52:43.101Z,1023.80
2018-01-27T11:53:42.983Z,1023.81
2018-01-27T11:54:42.962Z,1023.80
2018-01-27T11:55:42.944Z,1023.76
2018-01-27T11:56:42.976Z,1023.77
2018-01-27T11:57:42.901Z,1023.75
2018-01-27T11:58:42.899Z,1023.70
2018-01-27T11:59:42.867Z,1023.70
2018-01-27T12:00:42.866Z,1023.71
2018-01-27T12:01:42.831Z,1023.66
2018-01-27T12:02:42.908Z,1023.67
2018-01-27T12:03:42.791Z,1023.65
2018-01-27T12:04:42.780Z,1023.61
2018-01-27T12:05:42.758Z,1023.59